KGXY/GXY METAR and TAF weather

Enter ICAO airport designator
Station Type Date Time Source
KGXY METAR 2019/10/21 01:56 UTC NOAA

KGXY 210156Z AUTO 32015KT 10SM CLR 06/M06 A2988 RMK AO2 SLP127 T00611061


Station Type Date Time Source
KGXY Decoded METAR 2019/10/21 01:56 UTC NOAA

Greeley, Greeley-Weld County Airport, CO, United States (KGXY) 40-26N 104-38W
Oct 20, 2019 - 09:56 PM EDT / 2019.10.21 0156 UTC
Wind: from the NW (320 degrees) at 17 MPH (15 KT):0
Visibility: 10 mile(s):0
Sky conditions: clear
Temperature: 43.0 F (6.1 C)
Dew Point: 21.0 F (-6.1 C)
Relative Humidity: 41%
Pressure (altimeter): 29.88 in. Hg (1011 hPa)
ob: KGXY 210156Z AUTO 32015KT 10SM CLR 06/M06 A2988 RMK AO2 SLP127 T00611061
cycle: 2

Station Type Date Time Source
KGXY TAF UTC NOAA

Error!

Example: see airport list